Change the Weather History Date:

Friday, July 5, 2013

  Actual Average Record
Temperature  
Mean Temperature 45 °F -  
Max Temperature 46 °F 58 °F 80 °F (2008)
Min Temperature 44 °F 44 °F 39 °F (2001)
Degree Days  
Heating Degree Days 20    
Moisture  
Dew Point 41 °F    
Average Humidity 84    
Maximum Humidity 93    
Minimum Humidity 76    
Precipitation  
Precipitation 0.19 in - - ()
Sea Level Pressure  
Sea Level Pressure 29.92 in    
Wind  
Wind Speed 8 mph (South)    
Max Wind Speed 12 mph    
Max Gust Speed 18 mph    
Visibility 7 miles    
Events      
Averages and records for this station are not official NWS values.
T = Trace of Precipitation, MM = Missing Value Source: NWS Daily Summary

Daily Weather History Graph

Daily Weather History Graph

Search for Another Location

Airport or City:

Trip Planner

Search our weather history database for the weather conditions in past years. The results will help you decide how hot, cold, wet, or windy it might be!

Date:

Astronomy

Jul. 05, 2013 Rise Set
Actual Time 5:16 AM AKDT 12:38 AM AKDT
Civil Twilight 3:30 AM AKDT 2:25 AM AKDT
Nautical Twilight Sun does not rise Sun does not rise
Astronomical Twilight Sun does not rise Sun does not rise
Moon 3:54 AM AKDT (7/5) 10:16 PM AKDT (7/5)
Length of Visible Light 22h 55m
Length of Day
19h 22m
Waning Crescent, 5% of the Moon is Illuminated
Jul 5
Waning Crescent
Jul 7
New
Jul 15
First Quarter
Jul 22
Full
Jul 29
Last Quarter

Hourly Weather History & Observations

Time (AKDT) Temp. Windchill Dew Point Humidity Pressure Visibility Wind Dir Wind Speed Gust Speed Precip Events Conditions
12:16 AM 44.6 °F 40.2 °F 42.8 °F 93% 29.92 in 5.0 mi South 8.1 mph - N/A   Overcast
12:36 AM 44.6 °F 40.7 °F 42.8 °F 93% 29.92 in 2.0 mi South 6.9 mph 17.3 mph N/A   Overcast
12:56 AM 44.6 °F 39.2 °F 42.8 °F 93% 29.92 in 2.5 mi South 10.4 mph 16.1 mph N/A   Overcast
1:16 AM 44.6 °F 38.8 °F 41.0 °F 87% 29.92 in 2.5 mi South 11.5 mph 18.4 mph N/A   Overcast
1:36 AM 44.6 °F 40.2 °F 41.0 °F 87% 29.92 in 5.0 mi South 8.1 mph 17.3 mph N/A   Overcast
1:56 AM 44.6 °F 40.7 °F 41.0 °F 87% 29.93 in 4.0 mi South 6.9 mph - N/A   Overcast
2:16 AM 44.6 °F 40.2 °F 41.0 °F 87% 29.93 in 1.0 mi South 8.1 mph - N/A   Overcast
2:36 AM 44.6 °F 39.2 °F 41.0 °F 87% 29.93 in 1.0 mi South 10.4 mph 17.3 mph 0.01 in   Overcast
2:56 AM 44.6 °F 40.2 °F 41.0 °F 87% 29.93 in 4.0 mi South 8.1 mph 18.4 mph 0.03 in   Overcast
3:16 AM 44.6 °F 39.7 °F 41.0 °F 87% 29.93 in 5.0 mi South 9.2 mph 16.1 mph 0.02 in   Overcast
3:36 AM 44.6 °F 40.2 °F 41.0 °F 87% 29.93 in 4.0 mi South 8.1 mph - 0.02 in   Overcast
3:56 AM 44.6 °F 40.2 °F 41.0 °F 87% 29.93 in 2.5 mi South 8.1 mph - 0.02 in   Overcast
4:16 AM 44.6 °F 39.7 °F 41.0 °F 87% 29.93 in 4.0 mi South 9.2 mph - 0.01 in   Overcast
4:36 AM 44.6 °F 39.7 °F 39.2 °F 81% 29.93 in 4.0 mi South 9.2 mph - 0.02 in   Overcast
4:56 AM 44.6 °F 39.7 °F 41.0 °F 87% 29.93 in 1.2 mi SSW 9.2 mph - 0.02 in   Overcast
5:16 AM 44.6 °F 40.2 °F 41.0 °F 87% 29.93 in 1.8 mi South 8.1 mph - 0.01 in   Overcast
5:36 AM 44.6 °F 40.2 °F 39.2 °F 81% 29.93 in 1.0 mi SSW 8.1 mph - 0.01 in   Overcast
5:56 AM 44.6 °F 40.2 °F 39.2 °F 81% 29.92 in 0.8 mi SSW 8.1 mph - 0.01 in   Overcast
6:16 AM 44.6 °F 40.2 °F 39.2 °F 81% 29.92 in 1.0 mi South 8.1 mph - 0.01 in   Overcast
6:36 AM 44.6 °F 41.4 °F 39.2 °F 81% 29.92 in 1.8 mi South 5.8 mph - 0.01 in   Overcast
6:56 AM 44.6 °F 40.7 °F 39.2 °F 81% 29.92 in 1.8 mi South 6.9 mph - 0.01 in   Overcast
7:16 AM 44.6 °F 40.2 °F 41.0 °F 87% 29.92 in 1.5 mi SSW 8.1 mph - N/A   Overcast
7:36 AM 44.6 °F 40.2 °F 39.2 °F 81% 29.93 in 1.5 mi SSW 8.1 mph - N/A   Overcast
7:56 AM 44.6 °F 39.7 °F 39.2 °F 81% 29.93 in 2.0 mi SSW 9.2 mph 16.1 mph 0.01 in   Overcast
8:16 AM 44.6 °F 40.2 °F 39.2 °F 81% 29.93 in 5.0 mi SSW 8.1 mph - 0.01 in   Overcast
8:36 AM 44.6 °F 39.7 °F 39.2 °F 81% 29.93 in 9.0 mi South 9.2 mph - 0.01 in   Overcast
8:56 AM 44.6 °F 39.2 °F 39.2 °F 81% 29.93 in 10.0 mi SSW 10.4 mph - 0.02 in   Overcast
9:16 AM 44.6 °F 40.2 °F 39.2 °F 81% 29.94 in 10.0 mi South 8.1 mph - N/A   Overcast
9:36 AM 44.6 °F 39.2 °F 39.2 °F 81% 29.94 in 10.0 mi South 10.4 mph - N/A   Overcast
9:56 AM 44.6 °F 39.7 °F 41.0 °F 87% 29.94 in 10.0 mi South 9.2 mph - N/A   Overcast
10:16 AM 44.6 °F 39.2 °F 39.2 °F 81% 29.94 in 10.0 mi South 10.4 mph 16.1 mph N/A   Overcast
10:36 AM 44.6 °F 39.2 °F 39.2 °F 81% 29.94 in 10.0 mi South 10.4 mph - N/A   Overcast
10:56 AM 44.6 °F 40.7 °F 39.2 °F 81% 29.94 in 10.0 mi South 6.9 mph 16.1 mph N/A   Overcast
11:16 AM 44.6 °F 40.2 °F 39.2 °F 81% 29.94 in 5.0 mi South 8.1 mph - 0.01 in   Overcast
11:36 AM 44.6 °F 40.2 °F 39.2 °F 81% 29.94 in 4.0 mi South 8.1 mph - 0.01 in   Overcast
11:56 AM 44.6 °F 40.7 °F 41.0 °F 87% 29.94 in 7.0 mi South 6.9 mph - 0.02 in   Overcast
12:16 PM 44.6 °F 39.7 °F 41.0 °F 87% 29.94 in 10.0 mi South 9.2 mph - 0.01 in   Overcast
12:36 PM 44.6 °F 40.7 °F 41.0 °F 87% 29.94 in 8.0 mi South 6.9 mph - 0.01 in   Overcast
12:56 PM 44.6 °F 40.7 °F 41.0 °F 87% 29.94 in 7.0 mi South 6.9 mph - 0.01 in   Overcast
1:16 PM 44.6 °F 39.7 °F 39.2 °F 81% 29.94 in 10.0 mi South 9.2 mph - N/A   Overcast
1:36 PM 44.6 °F 39.7 °F 41.0 °F 87% 29.94 in 10.0 mi South 9.2 mph - 0.01 in   Overcast
1:56 PM 44.6 °F 40.7 °F 41.0 °F 87% 29.94 in 10.0 mi South 6.9 mph - 0.01 in   Overcast
2:16 PM 44.6 °F 39.7 °F 41.0 °F 87% 29.94 in 10.0 mi South 9.2 mph - N/A   Overcast
2:36 PM 46.4 °F 41.1 °F 41.0 °F 81% 29.93 in 10.0 mi South 11.5 mph - N/A   Overcast
2:56 PM 46.4 °F 43.5 °F 41.0 °F 81% 29.93 in 10.0 mi SSE 5.8 mph - N/A   Overcast
3:16 PM 46.4 °F 41.9 °F 41.0 °F 81% 29.93 in 10.0 mi South 9.2 mph - N/A   Overcast
3:36 PM 46.4 °F 41.9 °F 41.0 °F 81% 29.93 in 10.0 mi South 9.2 mph - N/A   Overcast
3:56 PM 46.4 °F 41.9 °F 41.0 °F 81% 29.93 in 10.0 mi South 9.2 mph - N/A   Overcast
4:16 PM 46.4 °F 42.9 °F 41.0 °F 81% 29.92 in 10.0 mi South 6.9 mph - N/A   Overcast
4:36 PM 46.4 °F 42.4 °F 41.0 °F 81% 29.92 in 10.0 mi South 8.1 mph - N/A   Overcast
4:56 PM 46.4 °F 42.4 °F 41.0 °F 81% 29.92 in 10.0 mi South 8.1 mph - N/A   Overcast
5:16 PM 46.4 °F 42.9 °F 39.2 °F 76% 29.91 in 10.0 mi South 6.9 mph - N/A   Overcast
5:36 PM 46.4 °F 42.4 °F 39.2 °F 76% 29.91 in 10.0 mi South 8.1 mph - N/A   Overcast
5:56 PM 46.4 °F 44.3 °F 39.2 °F 76% 29.91 in 10.0 mi South 4.6 mph - N/A   Overcast
6:16 PM 46.4 °F 42.4 °F 41.0 °F 81% 29.90 in 10.0 mi South 8.1 mph - N/A   Overcast
6:36 PM 46.4 °F 41.9 °F 41.0 °F 81% 29.90 in 9.0 mi South 9.2 mph - N/A   Overcast
6:56 PM 46.4 °F 42.9 °F 41.0 °F 81% 29.89 in 10.0 mi South 6.9 mph - N/A   Overcast
7:16 PM 46.4 °F 43.5 °F 42.8 °F 87% 29.89 in 10.0 mi SSW 5.8 mph - N/A   Overcast
7:36 PM 46.4 °F 43.5 °F 41.0 °F 81% 29.89 in 10.0 mi South 5.8 mph - 0.01 in   Overcast
7:56 PM 46.4 °F 43.5 °F 42.8 °F 87% 29.89 in 10.0 mi South 5.8 mph - 0.01 in   Overcast
8:16 PM 46.4 °F 43.5 °F 42.8 °F 87% 29.88 in 10.0 mi South 5.8 mph - N/A   Overcast
8:36 PM 46.4 °F 45.2 °F 42.8 °F 87% 29.88 in 10.0 mi South 3.5 mph - 0.01 in   Overcast
8:56 PM 46.4 °F - 42.8 °F 87% 29.88 in 10.0 mi Calm Calm - 0.01 in   Overcast
9:16 PM 46.4 °F - 42.8 °F 87% 29.88 in 10.0 mi Calm Calm - N/A   Overcast
9:36 PM 46.4 °F 45.2 °F 42.8 °F 87% 29.87 in 10.0 mi SSE 3.5 mph - N/A   Overcast
9:56 PM 46.4 °F 45.2 °F 42.8 °F 87% 29.87 in 10.0 mi SE 3.5 mph - N/A   Overcast
10:16 PM 46.4 °F - 42.8 °F 87% 29.87 in 10.0 mi Calm Calm - 0.01 in   Overcast
10:36 PM 46.4 °F - 42.8 °F 87% 29.86 in 8.0 mi Calm Calm - 0.01 in   Overcast
10:56 PM 46.4 °F - 42.8 °F 87% 29.86 in 10.0 mi Calm Calm - 0.01 in   Overcast
11:16 PM 46.4 °F - 42.8 °F 87% 29.86 in 10.0 mi Calm Calm - N/A   Overcast
11:36 PM 46.4 °F 45.2 °F 42.8 °F 87% 29.86 in 9.0 mi NE 3.5 mph - N/A   Overcast
11:56 PM 46.4 °F 45.2 °F 42.8 °F 87% 29.85 in 8.0 mi NE 3.5 mph - N/A   Overcast